Etusivu
METAR-TAF:

METAR-TAF

Lentoasemat :

Jönköping, Ruotsi

Leveyspiiri: 57-46N, Pituuspiiri: 014-05E, korkeus merenpinnasta: 226 m

Tämänhetkinen sää

Tämä raportti tehtiin 17 minuuttia sitten, kello 18.50 UTC
Tuuli 8 kn lännestä/lounaasta
Lämpötila 20°C
Kosteus 53%
Ilmanpaine 1009 hPa
Näkyvyys 10 km tai enemmän

METAR: ESGJ 211850Z AUTO 24008KT 9999 NCD 20/10 Q1009

Aika: 21:07 (19:07 UTC)

Sääennuste

Tämä raportti tehtiin 10 tuntia ja 37 minuuttia sitten, kello 08.30 UTC
Ennuste voimassa 21. päivästä klo 09 UTC - 21. päivään klo 13 UTC
Tuuli 8 kn lännestä
Näkyvyys 10 km tai enemmän
ei pilviä alle 1500 m:ssä eikä cumulonimbus-pilviä

TAF: ESGJ 210830Z 2109/2113 27008KT CAVOK

Säähavainnot ja -ennusteet yli 4000 lentoasemalta (METAR- ja TAF-raportit).

Käytössä olevat sääasemat on merkitty karttaan keltaisilla ja punaisilla pisteillä.

Aseta hiiri pisteen päälle nähdäksesi sääaseman nimen.

Klikkaa sitten nähdäksesi säähavainnot ja -ennusteet.

Kartan vaihtaminen: klikkaa mustalla rastilla varustettuja vihreitä pisteitä, niin voit zoomata sisään; viivalla varustettua vihreää pistettä, niin voit zoomata ulos tai vihreitä nuolia, niin pääset viereisille kartoille.


METAR-TAF: